Time;durP1;ratioP1;P1;durP2;ratioP2;P2;SDS_P1;SDS_P2;PMS_P1;PMS_P2;Temp;Humidity;BMP_temperature;BMP_pressure;BME280_temperature;BME280_humidity;BME280_pressure;Samples;Min_cycle;Max_cycle;Signal;HPM_P1;HPM_P2
2021/11/11 00:00:06;;;;;;;18.33;10.77;;;;;;;5.52;73.88;96414.88;5098119;28;20445;-80
2021/11/11 00:02:33;;;;;;;17.40;13.03;;;;;;;5.57;74.02;96408.56;5095858;28;20938;-81
2021/11/11 00:05:00;;;;;;;16.13;11.20;;;;;;;5.65;73.91;96410.00;5097978;28;20446;-81
2021/11/11 00:07:27;;;;;;;19.37;10.53;;;;;;;5.65;73.76;96403.03;5097893;28;20481;-81
2021/11/11 00:09:57;;;;;;;10.40;9.30;;;;;;;5.67;73.97;96405.59;5045301;28;20442;-81
2021/11/11 00:12:26;;;;;;;12.87;10.00;;;;;;;5.55;74.10;96405.19;5097202;28;20432;-80
2021/11/11 00:25:07;;;;;;;14.40;10.00;;;;;;;5.41;74.83;96398.81;5097225;28;20784;-80
2021/11/11 00:27:35;;;;;;;12.40;9.57;;;;;;;5.39;74.69;96396.28;5096655;28;20432;-81
2021/11/11 00:30:02;;;;;;;13.90;8.50;;;;;;;5.41;74.51;96386.66;5097403;28;20432;-81
2021/11/11 00:32:29;;;;;;;12.60;7.83;;;;;;;5.44;74.18;96381.31;5097123;28;20444;-81
2021/11/11 00:34:56;;;;;;;14.23;9.57;;;;;;;5.46;74.16;96389.91;5096639;28;20468;-81
2021/11/11 00:37:24;;;;;;;16.73;8.67;;;;;;;5.53;74.25;96401.81;5097149;28;20447;-81
2021/11/11 00:39:52;;;;;;;12.50;9.27;;;;;;;5.53;73.79;96396.59;5096737;28;20477;-81
2021/11/11 00:42:19;;;;;;;22.33;9.57;;;;;;;5.47;74.53;96396.81;5095463;28;20438;-81
2021/11/11 00:44:48;;;;;;;26.30;15.87;;;;;;;5.42;73.35;96403.13;5096343;28;20439;-81
2021/11/11 00:47:15;;;;;;;19.70;12.70;;;;;;;5.35;73.49;96394.72;5096421;28;20945;-81
2021/11/11 00:49:43;;;;;;;14.10;9.73;;;;;;;5.32;74.18;96394.84;5096950;28;20435;-81
2021/11/11 00:52:11;;;;;;;18.63;9.20;;;;;;;5.34;74.45;96390.44;5096404;28;20454;-81
2021/11/11 00:54:39;;;;;;;13.20;10.00;;;;;;;5.26;74.97;96382.94;5096820;28;20474;-82
2021/11/11 00:57:07;;;;;;;10.97;7.60;;;;;;;5.25;74.16;96386.44;5096039;28;20435;-81
2021/11/11 00:59:34;;;;;;;8.07;6.60;;;;;;;5.26;75.12;96384.69;5096029;28;20466;-82
2021/11/11 01:02:07;;;;;;;11.90;8.87;;;;;;;5.20;73.93;96388.38;5044439;28;20491;-82
2021/11/11 01:04:34;;;;;;;22.60;9.90;;;;;;;4.93;75.22;96381.66;5095743;28;20930;-82
2021/11/11 01:07:01;;;;;;;13.07;8.83;;;;;;;4.73;75.94;96379.81;5044458;28;20440;-82
2021/11/11 01:09:29;;;;;;;18.17;11.30;;;;;;;4.85;76.00;96376.72;5096097;28;20446;-82
2021/11/11 01:11:57;;;;;;;12.10;8.70;;;;;;;4.76;76.16;96377.09;5095825;28;20434;-81
2021/11/11 01:14:24;;;;;;;13.77;8.57;;;;;;;4.87;76.98;96380.13;5096013;28;20456;-82
2021/11/11 01:16:52;;;;;;;10.77;8.83;;;;;;;4.91;77.28;96373.03;5096152;28;20528;-82
2021/11/11 01:19:21;;;;;;;13.03;8.77;;;;;;;5.02;77.52;96375.25;5095887;28;20448;-82
2021/11/11 01:21:49;;;;;;;14.30;8.27;;;;;;;5.11;76.72;96372.28;5095860;28;20953;-81
2021/11/11 01:24:16;;;;;;;13.60;8.83;;;;;;;5.08;76.47;96372.41;5095727;28;20433;-82
2021/11/11 01:26:43;;;;;;;10.80;8.30;;;;;;;5.13;76.54;96373.91;5095673;28;20442;-81
2021/11/11 01:29:10;;;;;;;12.43;7.50;;;;;;;5.15;76.65;96369.47;5095238;28;20440;-83
2021/11/11 01:31:37;;;;;;;11.87;8.93;;;;;;;5.19;75.82;96365.84;5095074;28;20443;-82
2021/11/11 01:34:05;;;;;;;12.20;9.77;;;;;;;5.17;76.19;96364.22;5095032;28;20514;-82
2021/11/11 01:36:33;;;;;;;15.53;10.73;;;;;;;5.08;75.98;96359.38;5095640;28;20471;-81
2021/11/11 01:39:00;;;;;;;19.33;11.40;;;;;;;5.06;76.48;96361.22;5095352;28;20536;-82
2021/11/11 01:48:14;;;;;;;21.50;11.30;;;;;;;5.12;76.18;96356.59;5094268;28;20513;-81
2021/11/11 01:50:42;;;;;;;17.17;11.30;;;;;;;5.10;76.42;96357.56;5095324;28;20531;-82
2021/11/11 01:53:12;;;;;;;24.00;12.77;;;;;;;5.05;76.67;96357.75;5094508;28;20514;-82
2021/11/11 01:55:40;;;;;;;19.97;13.63;;;;;;;4.95;75.91;96356.44;5094890;28;20491;-82
2021/11/11 01:58:07;;;;;;;23.23;16.00;;;;;;;4.90;76.95;96356.59;5095178;28;20440;-81
2021/11/11 02:00:38;;;;;;;23.50;15.60;;;;;;;4.86;76.50;96351.56;5095275;28;20435;-82
2021/11/11 02:03:07;;;;;;;22.57;14.97;;;;;;;4.87;77.79;96348.91;5095508;28;20785;-81
2021/11/11 02:05:36;;;;;;;24.30;14.60;;;;;;;4.90;77.92;96354.00;5094884;28;20910;-82
2021/11/11 02:08:04;;;;;;;30.13;14.13;;;;;;;4.86;77.12;96336.81;5095025;28;20432;-83
2021/11/11 02:10:34;;;;;;;15.90;10.43;;;;;;;4.71;76.71;96349.59;5094744;28;20455;-81
2021/11/11 02:13:01;;;;;;;21.40;13.83;;;;;;;4.66;77.55;96334.16;5094755;28;20779;-80
2021/11/11 02:15:28;;;;;;;28.07;15.90;;;;;;;4.68;78.04;96340.16;5094398;28;20987;-81
2021/11/11 02:17:55;;;;;;;22.50;13.83;;;;;;;4.72;78.48;96339.13;5094230;28;20443;-81
2021/11/11 02:20:26;;;;;;;20.07;14.43;;;;;;;4.79;78.02;96335.38;5094654;28;20947;-81
2021/11/11 02:22:53;;;;;;;20.80;13.27;;;;;;;4.84;78.42;96343.00;5095259;28;20452;-80
2021/11/11 02:25:23;;;;;;;24.97;13.90;;;;;;;4.90;78.84;96340.97;5094347;28;20443;-80
2021/11/11 02:27:52;;;;;;;18.80;12.60;;;;;;;4.95;77.62;96340.84;5094370;28;20823;-81
2021/11/11 02:30:21;;;;;;;16.87;11.23;;;;;;;4.99;78.07;96342.41;5094872;28;20786;-82
2021/11/11 02:32:48;;;;;;;16.60;12.60;;;;;;;4.92;76.55;96341.81;5059515;28;20930;-82
2021/11/11 02:35:17;;;;;;;20.53;13.17;;;;;;;4.92;76.16;96330.56;5094401;28;20468;-82
2021/11/11 02:37:47;;;;;;;21.70;12.70;;;;;;;4.96;76.57;96332.13;5094916;28;20466;-82
2021/11/11 02:40:16;;;;;;;16.63;11.90;;;;;;;4.90;77.67;96330.59;5094709;28;20523;-82
2021/11/11 02:42:46;;;;;;;17.67;12.73;;;;;;;4.81;77.30;96328.34;5094476;28;20446;-82
2021/11/11 02:45:16;;;;;;;15.47;12.47;;;;;;;4.79;77.28;96339.72;5094055;28;20431;-80
2021/11/11 02:47:43;;;;;;;18.60;12.37;;;;;;;4.74;77.10;96326.06;5094542;28;20443;-81
2021/11/11 03:03:57;;;;;;;19.40;11.23;;;;;;;4.24;78.62;96321.88;5094140;28;20457;-81
2021/11/11 03:06:24;;;;;;;18.20;12.20;;;;;;;4.32;79.11;96319.81;5098257;28;20505;-81
2021/11/11 03:08:51;;;;;;;14.40;11.90;;;;;;;4.43;79.51;96318.59;5099014;28;20428;-81
2021/11/11 03:11:20;;;;;;;16.50;11.77;;;;;;;4.51;79.42;96325.19;5098906;28;20465;-81
2021/11/11 03:13:46;;;;;;;20.50;13.33;;;;;;;4.53;79.34;96327.72;5098190;28;20432;-81
2021/11/11 03:16:13;;;;;;;22.73;13.17;;;;;;;4.55;78.33;96323.31;5045968;28;20843;-80
2021/11/11 03:18:40;;;;;;;22.00;12.63;;;;;;;4.53;77.47;96312.97;5097597;28;20940;-81
2021/11/11 03:21:09;;;;;;;20.60;12.70;;;;;;;4.57;77.81;96319.75;5098172;28;20454;-81
2021/11/11 03:23:36;;;;;;;17.93;12.13;;;;;;;4.56;77.12;96315.44;5097760;28;20450;-81
2021/11/11 03:26:03;;;;;;;29.37;13.40;;;;;;;4.50;77.93;96302.69;5097941;28;20440;-81
2021/11/11 03:28:30;;;;;;;19.43;12.63;;;;;;;4.58;78.00;96310.19;5097860;28;20526;-81
2021/11/11 03:30:57;;;;;;;14.70;11.07;;;;;;;4.52;78.83;96305.25;5097878;28;20427;-82
2021/11/11 03:33:24;;;;;;;17.37;10.60;;;;;;;4.56;78.43;96312.00;5097651;28;20428;-82
2021/11/11 03:35:51;;;;;;;21.80;11.13;;;;;;;4.54;78.21;96311.22;5097453;28;20475;-82
2021/11/11 03:38:19;;;;;;;18.67;10.20;;;;;;;4.52;78.29;96305.25;5097723;28;20931;-82
2021/11/11 03:40:47;;;;;;;15.90;10.03;;;;;;;4.56;77.83;96310.25;5097645;28;20475;-81
2021/11/11 03:43:15;;;;;;;14.10;9.83;;;;;;;4.59;77.84;96309.28;5098203;28;20428;-81
2021/11/11 03:45:43;;;;;;;20.10;11.23;;;;;;;4.64;77.91;96299.59;5097823;28;20448;-81
2021/11/11 03:48:09;;;;;;;18.87;11.23;;;;;;;4.63;78.22;96296.13;5097564;28;20424;-81
2021/11/11 03:50:37;;;;;;;14.23;10.50;;;;;;;4.66;77.70;96295.16;5097678;28;20439;-81
2021/11/11 03:53:04;;;;;;;16.20;11.07;;;;;;;4.63;77.43;96285.75;5099075;28;20432;-82
2021/11/11 03:55:32;;;;;;;34.60;17.00;;;;;;;4.55;77.48;96279.13;5097882;28;20472;-82
2021/11/11 03:58:00;;;;;;;30.37;16.20;;;;;;;4.62;76.78;96288.38;5097402;28;20431;-82
2021/11/11 04:00:29;;;;;;;18.33;13.23;;;;;;;4.60;76.91;96274.59;5095035;28;20433;-82
2021/11/11 04:02:56;;;;;;;26.47;12.10;;;;;;;4.61;77.33;96279.72;5062334;28;20443;-82
2021/11/11 04:05:23;;;;;;;22.73;12.80;;;;;;;4.55;77.07;96273.94;5096365;28;20442;-82
2021/11/11 04:07:50;;;;;;;21.47;14.40;;;;;;;4.51;77.65;96277.56;5096649;28;20442;-82
2021/11/11 04:33:53;;;;;;;19.23;12.30;;;;;;;4.61;76.27;96273.69;5095352;28;20444;-82
2021/11/11 04:36:37;;;;;;;24.87;14.40;;;;;;;4.62;76.69;96272.78;5096212;28;20474;-82
2021/11/11 04:39:17;;;;;;;24.70;14.23;;;;;;;4.63;77.00;96271.91;5096055;28;20920;-82
2021/11/11 04:42:02;;;;;;;22.73;13.70;;;;;;;4.63;76.97;96272.75;5095689;28;20437;-82
2021/11/11 04:48:08;;;;;;;25.23;11.70;;;;;;;4.49;76.36;96264.63;5096116;28;20475;-82
2021/11/11 05:01:37;;;;;;;21.30;13.37;;;;;;;4.53;76.53;96265.34;5095441;28;20480;-81
2021/11/11 05:04:04;;;;;;;16.23;12.03;;;;;;;4.56;76.98;96262.63;5095534;28;20431;-81
2021/11/11 05:06:32;;;;;;;21.50;12.80;;;;;;;4.57;76.69;96265.16;5093595;28;21109;-81
2021/11/11 05:09:23;;;;;;;18.47;12.30;;;;;;;4.58;77.50;96266.00;5095605;28;20447;-82
2021/11/11 05:11:50;;;;;;;21.80;13.20;;;;;;;4.54;76.40;96267.03;5096318;28;20432;-82
2021/11/11 05:14:17;;;;;;;22.90;14.07;;;;;;;4.55;76.75;96263.53;5095819;28;20478;-82
2021/11/11 05:16:45;;;;;;;22.40;13.60;;;;;;;4.51;77.32;96257.59;5096084;28;20995;-87
2021/11/11 05:19:12;;;;;;;30.33;15.73;;;;;;;4.61;78.24;96265.88;5097218;28;20440;-87
2021/11/11 05:21:41;;;;;;;25.70;13.57;;;;;;;4.63;77.61;96269.28;5096051;28;20790;-82
2021/11/11 05:24:10;;;;;;;20.20;13.63;;;;;;;4.63;77.23;96266.69;5095974;28;20824;-82
2021/11/11 05:30:03;;;;;;;17.83;11.83;;;;;;;4.63;76.46;96258.91;5094963;28;20407;-82
2021/11/11 05:32:30;;;;;;;19.10;13.43;;;;;;;4.62;76.47;96254.56;5099719;28;20527;-82
2021/11/11 05:34:57;;;;;;;25.33;13.50;;;;;;;4.62;76.16;96250.22;5107450;28;20908;-81
2021/11/11 05:37:26;;;;;;;19.13;13.80;;;;;;;4.64;77.01;96250.19;5115380;28;20470;-80
2021/11/11 05:39:52;;;;;;;28.60;15.73;;;;;;;4.60;77.17;96259.00;5115358;28;20473;-81
2021/11/11 05:49:03;;;;;;;26.40;17.13;;;;;;;4.70;78.04;96262.94;5114303;28;20484;-82
2021/11/11 05:51:30;;;;;;;38.43;17.87;;;;;;;4.88;78.59;96262.19;5062430;28;20597;-82
2021/11/11 05:53:59;;;;;;;49.77;19.47;;;;;;;4.91;76.58;96263.81;5106131;28;20519;-82
2021/11/11 05:56:26;;;;;;;30.90;19.30;;;;;;;4.68;77.33;96263.91;5094911;28;20558;-83
2021/11/11 05:58:53;;;;;;;36.83;18.40;;;;;;;4.72;77.55;96268.91;5095106;28;20439;-83
2021/11/11 06:01:20;;;;;;;23.57;15.53;;;;;;;4.83;77.23;96268.47;5094128;28;20944;-82
2021/11/11 06:03:47;;;;;;;28.03;17.47;;;;;;;4.98;77.23;96273.94;5094397;28;20504;-84
2021/11/11 06:06:15;;;;;;;29.70;16.00;;;;;;;5.07;77.35;96266.66;5095162;28;20460;-83
2021/11/11 06:08:42;;;;;;;26.87;17.23;;;;;;;5.21;78.15;96265.19;5094923;28;20856;-81
2021/11/11 06:11:10;;;;;;;32.47;18.17;;;;;;;5.36;77.49;96268.03;5094244;28;20945;-80
2021/11/11 06:13:37;;;;;;;40.43;19.33;;;;;;;5.41;76.78;96268.69;5093894;28;20934;-79
2021/11/11 06:16:04;;;;;;;23.43;16.60;;;;;;;5.54;76.20;96273.31;5094347;28;20574;-83
2021/11/11 06:18:32;;;;;;;31.20;16.77;;;;;;;5.70;76.03;96268.28;5094539;28;20546;-82
2021/11/11 06:21:00;;;;;;;26.37;15.33;;;;;;;5.80;75.33;96276.56;5094825;28;20442;-83
2021/11/11 06:23:28;;;;;;;32.60;18.90;;;;;;;5.89;74.88;96270.94;5095389;28;20428;-83
2021/11/11 06:25:56;;;;;;;33.50;19.37;;;;;;;6.03;74.67;96273.78;5096057;28;20503;-83
2021/11/11 06:28:24;;;;;;;40.50;23.43;;;;;;;6.08;73.24;96278.81;5096581;28;20986;-84
2021/11/11 06:30:51;;;;;;;37.67;21.20;;;;;;;6.16;73.63;96287.97;5095112;28;20429;-83
2021/11/11 06:33:18;;;;;;;41.03;21.13;;;;;;;6.17;73.39;96276.63;5108272;28;20446;-83
2021/11/11 06:35:45;;;;;;;26.83;15.90;;;;;;;6.27;72.69;96284.03;5115250;28;20521;-82
2021/11/11 06:38:13;;;;;;;21.50;16.10;;;;;;;6.36;71.46;96288.81;5114806;28;20423;-87
2021/11/11 06:40:40;;;;;;;28.40;19.20;;;;;;;6.12;71.79;96283.81;5114547;28;20553;-87
2021/11/11 06:43:07;;;;;;;23.00;15.53;;;;;;;6.01;71.25;96275.63;5114804;28;20522;-84
2021/11/11 06:45:41;;;;;;;26.47;14.23;;;;;;;6.09;71.93;96283.09;5116370;28;20874;-84
2021/11/11 06:48:08;;;;;;;22.83;14.53;;;;;;;6.14;71.91;96273.31;5114365;28;20443;-84
2021/11/11 06:50:36;;;;;;;20.37;14.87;;;;;;;6.23;70.79;96272.91;5114915;28;20514;-85
2021/11/11 06:53:03;;;;;;;30.17;17.20;;;;;;;6.36;72.19;96276.66;5114623;28;20929;-85
2021/11/11 06:55:31;;;;;;;22.07;14.73;;;;;;;6.46;70.41;96270.09;5114986;28;20997;-86
2021/11/11 06:57:58;;;;;;;21.60;14.00;;;;;;;6.56;70.43;96260.06;5114487;28;20485;-86
2021/11/11 07:00:25;;;;;;;20.63;14.00;;;;;;;6.61;70.44;96260.69;5115307;28;20869;-86
2021/11/11 07:02:54;;;;;;;22.80;15.43;;;;;;;6.59;69.55;96266.88;5115586;28;20456;-87
2021/11/11 07:05:21;;;;;;;23.70;14.07;;;;;;;6.56;70.71;96262.66;5115826;28;20470;-85
2021/11/11 07:07:51;;;;;;;26.57;14.30;;;;;;;6.42;71.16;96262.47;5115007;28;20561;-86
2021/11/11 07:10:18;;;;;;;16.47;13.10;;;;;;;6.45;70.75;96257.13;5115972;28;20455;-85
2021/11/11 07:12:45;;;;;;;24.73;14.90;;;;;;;6.48;70.74;96256.97;5113711;28;20977;-86
2021/11/11 07:15:15;;;;;;;24.70;13.70;;;;;;;6.46;71.68;96253.59;5114028;28;20807;-85
2021/11/11 07:17:42;;;;;;;17.70;12.63;;;;;;;6.48;71.47;96246.53;5113521;28;20573;-85
2021/11/11 07:20:13;;;;;;;23.57;14.83;;;;;;;6.46;71.57;96237.94;5113455;28;20937;-86
2021/11/11 07:22:42;;;;;;;22.50;12.77;;;;;;;6.37;71.41;96231.41;5113780;28;20549;-86
2021/11/11 07:25:12;;;;;;;22.53;13.53;;;;;;;6.38;70.36;96230.50;5113629;28;20492;-86
2021/11/11 07:27:39;;;;;;;24.40;14.07;;;;;;;6.40;71.39;96222.59;5115177;28;20481;-86
2021/11/11 07:30:09;;;;;;;18.83;13.10;;;;;;;6.51;72.13;96228.97;5116900;28;20447;-86
2021/11/11 07:32:37;;;;;;;19.30;12.73;;;;;;;6.48;72.04;96223.06;5115060;28;20530;-86
2021/11/11 07:35:08;;;;;;;18.60;12.87;;;;;;;6.52;71.81;96220.25;5114413;28;20450;-86
2021/11/11 07:37:40;;;;;;;24.30;12.10;;;;;;;6.52;71.04;96215.03;5114668;28;20575;-85
2021/11/11 07:40:10;;;;;;;17.20;11.53;;;;;;;6.46;70.82;96223.16;5114819;28;20478;-86
2021/11/11 07:42:37;;;;;;;19.77;10.80;;;;;;;6.53;70.75;96214.09;5114297;28;20512;-85
2021/11/11 07:45:05;;;;;;;17.53;11.83;;;;;;;6.47;70.02;96218.78;5114563;28;20436;-86
2021/11/11 07:47:33;;;;;;;20.67;11.77;;;;;;;6.61;71.10;96211.13;5115130;28;20460;-86
2021/11/11 07:50:02;;;;;;;19.03;12.40;;;;;;;6.71;71.13;96209.78;5115535;28;20905;-86
2021/11/11 07:52:29;;;;;;;18.70;12.90;;;;;;;6.71;70.37;96207.19;5119096;28;20501;-85
2021/11/11 07:54:59;;;;;;;20.67;13.63;;;;;;;6.74;70.57;96203.56;5118588;28;20856;-85
2021/11/11 07:57:28;;;;;;;22.47;12.90;;;;;;;6.82;70.09;96204.88;5118330;28;20518;-84
2021/11/11 07:59:56;;;;;;;18.23;12.10;;;;;;;6.72;70.40;96203.66;5118576;28;20427;-84
2021/11/11 08:02:24;;;;;;;19.70;13.00;;;;;;;6.86;69.55;96205.56;5118863;28;20432;-83
2021/11/11 08:04:53;;;;;;;28.53;13.13;;;;;;;6.78;69.45;96208.56;5118255;28;20429;-83
2021/11/11 08:07:20;;;;;;;21.07;11.77;;;;;;;6.89;70.02;96200.19;5120362;28;20524;-84
2021/11/11 08:09:48;;;;;;;18.43;12.83;;;;;;;6.92;69.43;96209.63;5118721;28;20621;-84
2021/11/11 08:12:18;;;;;;;19.50;11.53;;;;;;;7.07;69.35;96203.66;5118910;28;20467;-84
2021/11/11 08:14:46;;;;;;;14.50;10.87;;;;;;;7.15;69.25;96197.13;5122420;28;20443;-84
2021/11/11 08:17:15;;;;;;;19.23;11.30;;;;;;;7.20;67.70;96199.50;5120685;28;20547;-84
2021/11/11 08:19:43;;;;;;;10.30;8.63;;;;;;;7.31;68.34;96183.31;5123874;28;20439;-83
2021/11/11 08:22:12;;;;;;;15.63;10.97;;;;;;;7.37;67.73;96188.22;5088028;28;20458;-85
2021/11/11 08:24:43;;;;;;;34.37;12.20;;;;;;;7.39;67.49;96178.53;5119385;28;20479;-85
2021/11/11 08:27:12;;;;;;;19.33;11.53;;;;;;;7.46;67.57;96179.91;5120054;28;20432;-84
2021/11/11 08:29:42;;;;;;;20.10;11.90;;;;;;;7.56;66.73;96183.75;5119551;28;20463;-85
2021/11/11 08:32:09;;;;;;;17.07;10.80;;;;;;;7.64;66.11;96172.88;5118036;28;20455;-85
2021/11/11 08:34:37;;;;;;;13.60;9.93;;;;;;;7.61;64.51;96175.66;5117140;28;21024;-85
2021/11/11 08:37:05;;;;;;;14.77;8.70;;;;;;;7.65;64.67;96172.81;5117965;28;21073;-84
2021/11/11 08:39:32;;;;;;;13.63;9.67;;;;;;;7.82;64.84;96171.91;5117123;28;20498;-84
2021/11/11 08:42:00;;;;;;;21.03;12.23;;;;;;;7.97;65.61;96163.25;5121873;28;20526;-84
2021/11/11 08:44:27;;;;;;;24.97;12.37;;;;;;;8.04;65.26;96156.75;5121565;28;20456;-85
2021/11/11 08:46:56;;;;;;;15.77;9.30;;;;;;;8.13;65.51;96165.03;5117814;28;20527;-85
2021/11/11 08:49:23;;;;;;;15.30;9.30;;;;;;;8.09;63.83;96164.34;5081292;28;20515;-85
2021/11/11 08:51:53;;;;;;;14.37;8.80;;;;;;;8.08;62.01;96158.25;5117044;28;20534;-83
2021/11/11 08:54:22;;;;;;;11.87;8.87;;;;;;;8.11;62.46;96154.66;5119365;28;20471;-85
2021/11/11 08:56:50;;;;;;;13.70;8.60;;;;;;;8.09;62.06;96151.25;5117806;28;20527;-83
2021/11/11 08:59:18;;;;;;;12.40;8.10;;;;;;;8.22;61.92;96154.06;5117933;28;20456;-83
2021/11/11 09:01:46;;;;;;;19.17;10.60;;;;;;;8.44;62.42;96153.75;5117287;28;20861;-82
2021/11/11 09:04:16;;;;;;;16.53;10.40;;;;;;;8.63;62.40;96151.75;5118245;28;20451;-85
2021/11/11 09:06:43;;;;;;;15.97;10.20;;;;;;;8.47;60.96;96141.34;5119212;28;20454;-86
2021/11/11 09:09:11;;;;;;;20.60;9.23;;;;;;;8.56;61.10;96143.44;5117031;28;20478;-85
2021/11/11 09:11:39;;;;;;;12.07;8.97;;;;;;;8.69;60.43;96131.34;5117040;28;20882;-85
2021/11/11 09:14:07;;;;;;;14.77;9.10;;;;;;;8.57;61.55;96134.66;5116779;28;20451;-84
2021/11/11 09:16:35;;;;;;;9.63;8.53;;;;;;;8.75;61.41;96132.75;5115477;28;20434;-83
2021/11/11 09:19:04;;;;;;;14.07;9.50;;;;;;;8.75;61.56;96129.31;5103020;28;20480;-83
2021/11/11 09:21:33;;;;;;;13.43;9.63;;;;;;;8.82;60.99;96125.38;5116647;28;20922;-84
2021/11/11 09:24:00;;;;;;;12.47;9.50;;;;;;;8.83;60.77;96124.47;5121261;28;20440;-84
2021/11/11 09:26:28;;;;;;;13.30;8.00;;;;;;;8.80;59.69;96122.03;5118881;28;20441;-84
2021/11/11 09:28:55;;;;;;;12.53;9.97;;;;;;;8.93;61.07;96115.97;5117264;28;20494;-85
2021/11/11 09:31:34;;;;;;;14.67;10.90;;;;;;;9.08;61.13;96111.63;5116771;28;20483;-85
2021/11/11 09:34:01;;;;;;;15.50;9.40;;;;;;;9.23;59.61;96115.09;5117314;28;20449;-85
2021/11/11 09:36:30;;;;;;;12.40;8.83;;;;;;;9.27;59.50;96098.28;5116794;28;20827;-85
2021/11/11 09:38:59;;;;;;;13.80;9.00;;;;;;;9.37;60.33;96096.78;5097408;28;20910;-85
2021/11/11 09:41:26;;;;;;;13.43;8.83;;;;;;;9.41;58.29;96098.28;5098624;28;20449;-85
2021/11/11 09:43:54;;;;;;;14.47;9.90;;;;;;;9.37;58.46;96094.16;5098180;28;20807;-85
2021/11/11 09:46:22;;;;;;;14.50;9.70;;;;;;;9.31;58.98;96087.53;5098286;28;20928;-86
2021/11/11 09:48:50;;;;;;;13.07;8.80;;;;;;;9.23;59.29;96086.28;5110131;28;20461;-86
2021/11/11 09:51:21;;;;;;;15.20;8.27;;;;;;;9.27;59.94;96075.56;5117327;28;20955;-84
2021/11/11 09:53:58;;;;;;;13.30;9.77;;;;;;;9.32;59.94;96083.13;5117386;28;20436;-85
2021/11/11 09:59:12;;;;;;;14.83;10.17;;;;;;;9.37;61.14;96064.50;5097406;28;20484;-85
2021/11/11 10:01:39;;;;;;;13.37;9.47;;;;;;;9.30;60.23;96054.41;5097623;28;20879;-82
2021/11/11 10:04:06;;;;;;;14.83;9.80;;;;;;;9.42;61.36;96057.19;5100716;28;20497;-85
2021/11/11 10:06:34;;;;;;;10.90;8.73;;;;;;;9.52;60.27;96046.03;5095577;28;20441;-84
2021/11/11 10:09:12;;;;;;;14.30;9.30;;;;;;;9.66;60.65;96057.47;5103130;28;20479;-84
2021/11/11 10:11:49;;;;;;;14.33;9.30;;;;;;;9.66;59.64;96046.97;5096360;28;20446;-85
2021/11/11 10:14:20;;;;;;;14.13;8.73;;;;;;;9.67;60.12;96039.03;5106032;28;20530;-85
2021/11/11 10:16:51;;;;;;;10.63;8.30;;;;;;;9.55;59.81;96040.63;5117623;28;20904;-84
2021/11/11 10:19:18;;;;;;;12.73;8.67;;;;;;;9.37;60.45;96036.53;5116612;28;20471;-85
2021/11/11 10:21:49;;;;;;;14.70;7.40;;;;;;;9.47;61.21;96027.16;5065369;28;20444;-84
2021/11/11 10:24:30;;;;;;;12.37;8.00;;;;;;;9.55;60.61;96024.91;5102206;28;20447;-84
2021/11/11 10:27:08;;;;;;;12.23;7.70;;;;;;;9.63;60.69;96016.56;5094916;28;20826;-85
2021/11/11 10:29:43;;;;;;;13.20;9.10;;;;;;;9.77;59.82;96021.75;5094049;28;20460;-84
2021/11/11 10:32:16;;;;;;;15.00;8.67;;;;;;;9.80;61.74;96018.09;5093889;28;20443;-85
2021/11/11 10:34:51;;;;;;;11.83;8.10;;;;;;;9.69;61.00;96010.94;5093493;28;20440;-85
2021/11/11 10:37:19;;;;;;;11.50;8.87;;;;;;;9.71;60.50;96009.06;5095016;28;20553;-84
2021/11/11 10:39:53;;;;;;;84.10;42.60;;;;;;;9.77;60.85;96005.19;5095525;28;20557;-85
2021/11/11 10:42:24;;;;;;;20.50;12.90;;;;;;;9.84;60.84;96004.72;5097134;28;20448;-84
2021/11/11 10:44:55;;;;;;;28.13;11.13;;;;;;;9.92;61.77;95993.75;5095531;28;20541;-84
2021/11/11 10:47:27;;;;;;;16.27;10.37;;;;;;;9.93;61.10;96001.50;5096394;28;20961;-83
2021/11/11 10:49:55;;;;;;;10.80;9.67;;;;;;;9.87;60.22;95993.22;5094799;28;20456;-84
2021/11/11 10:52:35;;;;;;;15.77;11.13;;;;;;;9.86;61.54;95992.38;5095831;28;20447;-85
2021/11/11 10:55:25;;;;;;;14.73;10.30;;;;;;;9.86;61.80;95992.38;5094061;28;20470;-85
2021/11/11 10:58:02;;;;;;;21.50;9.83;;;;;;;9.87;61.55;95988.81;5093796;28;20507;-85
2021/11/11 11:00:38;;;;;;;12.63;9.77;;;;;;;9.92;61.50;95983.25;5093877;28;20467;-83
2021/11/11 11:03:09;;;;;;;21.83;12.00;;;;;;;9.94;61.40;95982.22;5093444;28;20463;-83
2021/11/11 11:05:47;;;;;;;19.13;11.93;;;;;;;9.96;61.58;95983.91;5095588;28;20747;-85
2021/11/11 11:08:19;;;;;;;14.40;9.47;;;;;;;10.08;62.63;95969.97;5093370;28;20518;-84
2021/11/11 11:10:48;;;;;;;23.67;11.97;;;;;;;10.10;62.48;95974.16;5098411;28;20951;-84
2021/11/11 11:13:19;;;;;;;19.60;11.80;;;;;;;10.12;60.18;95968.81;5113821;28;21163;-84
2021/11/11 11:15:54;;;;;;;19.03;10.20;;;;;;;10.00;60.12;95961.78;5113654;28;20492;-84
2021/11/11 11:18:24;;;;;;;11.63;9.50;;;;;;;10.06;60.32;95961.38;5113491;28;20466;-84
2021/11/11 11:20:56;;;;;;;15.30;9.80;;;;;;;10.03;60.38;95953.69;5113375;28;20437;-84
2021/11/11 11:23:36;;;;;;;12.63;9.77;;;;;;;10.02;60.71;95952.03;5116790;28;20447;-83
2021/11/11 11:26:22;;;;;;;22.63;11.13;;;;;;;10.13;60.70;95945.16;5117585;28;20517;-84
2021/11/11 11:29:11;;;;;;;19.17;10.17;;;;;;;10.21;61.51;95942.03;5118337;28;20443;-84
2021/11/11 11:31:46;;;;;;;19.60;10.10;;;;;;;10.31;60.30;95937.84;5119259;28;20921;-83
2021/11/11 11:34:18;;;;;;;14.10;11.13;;;;;;;10.41;60.11;95932.84;5117459;28;20478;-84
2021/11/11 11:36:49;;;;;;;15.60;10.50;;;;;;;10.44;59.64;95924.75;5116851;28;20947;-84
2021/11/11 11:39:24;;;;;;;17.73;9.83;;;;;;;10.55;59.16;95925.72;5116994;28;20497;-84
2021/11/11 11:41:51;;;;;;;11.80;10.37;;;;;;;10.60;59.14;95914.06;5117416;28;20529;-84
2021/11/11 11:44:32;;;;;;;16.93;10.77;;;;;;;10.66;58.75;95911.84;5118418;28;20697;-84
2021/11/11 11:47:08;;;;;;;19.53;10.77;;;;;;;10.76;59.09;95914.69;5119287;28;20474;-84
2021/11/11 11:49:36;;;;;;;14.30;8.77;;;;;;;10.75;57.86;95908.59;5119467;28;20945;-84
2021/11/11 11:52:05;;;;;;;15.77;9.30;;;;;;;10.90;58.25;95905.84;5118367;28;20503;-83
2021/11/11 11:54:38;;;;;;;14.37;9.90;;;;;;;10.92;58.29;95904.78;5118109;28;20495;-84
2021/11/11 11:57:10;;;;;;;11.30;8.97;;;;;;;10.93;58.00;95906.47;5119765;28;20451;-84
2021/11/11 11:59:42;;;;;;;10.10;8.80;;;;;;;10.99;58.59;95905.22;5118459;28;20482;-85
2021/11/11 12:02:18;;;;;;;13.63;10.00;;;;;;;10.98;57.11;95899.09;5118942;28;20443;-84
2021/11/11 12:10:42;;;;;;;16.23;10.37;;;;;;;11.05;57.91;95884.59;5093245;27;21069;-84
2021/11/11 12:13:42;;;;;;;16.23;11.40;;;;;;;11.00;58.30;95889.34;5093500;28;20779;-84
2021/11/11 12:16:35;;;;;;;14.13;10.83;;;;;;;10.88;57.95;95876.22;5093319;28;20454;-84
2021/11/11 12:38:41;;;;;;;13.97;8.77;;;;;;;10.92;57.38;95847.00;5091991;28;20512;-84
2021/11/11 12:41:11;;;;;;;18.53;8.47;;;;;;;11.03;56.88;95836.59;5092191;28;20455;-83
2021/11/11 12:43:39;;;;;;;10.93;8.20;;;;;;;11.12;57.81;95845.59;5092293;28;20806;-83
2021/11/11 12:46:08;;;;;;;14.40;8.63;;;;;;;11.17;58.05;95840.84;5092288;28;20509;-84
2021/11/11 12:48:39;;;;;;;15.03;10.30;;;;;;;11.21;57.09;95836.22;5093634;28;20471;-84
2021/11/11 12:51:07;;;;;;;17.73;9.77;;;;;;;11.22;56.91;95837.88;5092621;28;20449;-84
2021/11/11 12:53:49;;;;;;;14.20;10.50;;;;;;;11.28;55.89;95846.19;5091994;28;20535;-82
2021/11/11 12:56:27;;;;;;;12.93;9.90;;;;;;;11.31;56.00;95837.25;5093451;28;20447;-84
2021/11/11 12:59:17;;;;;;;11.80;8.20;;;;;;;11.32;56.03;95839.75;5092478;28;20451;-84
2021/11/11 13:01:57;;;;;;;13.43;8.33;;;;;;;11.25;56.22;95835.03;5070503;28;20933;-85
2021/11/11 13:04:26;;;;;;;11.80;8.17;;;;;;;11.22;56.06;95832.63;5069841;28;20536;-84
2021/11/11 13:06:55;;;;;;;13.43;8.37;;;;;;;11.18;56.27;95827.59;5068632;28;20477;-84
2021/11/11 13:09:32;;;;;;;21.00;7.70;;;;;;;11.08;56.37;95826.59;5068852;28;20566;-84
2021/11/11 13:12:13;;;;;;;10.80;6.87;;;;;;;11.04;56.33;95816.44;5070059;28;20495;-85
2021/11/11 13:14:58;;;;;;;13.73;7.20;;;;;;;11.11;55.68;95821.13;5069381;28;20433;-84
2021/11/11 13:17:27;;;;;;;16.80;9.20;;;;;;;11.04;56.40;95814.63;5069733;28;20467;-84
2021/11/11 13:20:00;;;;;;;13.70;9.20;;;;;;;11.06;55.58;95812.75;5067810;28;20921;-84
2021/11/11 13:22:41;;;;;;;13.60;8.13;;;;;;;10.99;56.08;95813.31;5055617;28;20438;-84
2021/11/11 13:25:24;;;;;;;15.43;10.10;;;;;;;11.05;56.57;95812.84;5056173;28;20456;-85